createdAt,value
2019-05-23T00:00:01.428Z,12.30
2019-05-23T00:02:32.835Z,12.20
2019-05-23T00:05:22.735Z,12.40
2019-05-23T00:07:52.548Z,12.50
2019-05-23T00:10:24.081Z,12.40
2019-05-23T00:13:01.095Z,12.30
2019-05-23T00:15:35.055Z,12.30
2019-05-23T00:18:06.070Z,12.20
2019-05-23T00:20:37.035Z,12.30
2019-05-23T00:23:08.831Z,12.10
2019-05-23T00:25:39.926Z,12.00
2019-05-23T00:28:10.772Z,12.00
2019-05-23T00:30:54.470Z,12.00
2019-05-23T00:33:25.701Z,11.90
2019-05-23T00:35:56.456Z,11.90
2019-05-23T00:38:26.953Z,11.90
2019-05-23T00:40:57.593Z,12.00
2019-05-23T00:43:27.723Z,12.00
2019-05-23T00:45:58.083Z,11.90
2019-05-23T00:48:28.495Z,11.90
2019-05-23T00:50:58.782Z,11.90
2019-05-23T00:53:29.883Z,11.70
2019-05-23T00:56:04.421Z,11.50
2019-05-23T00:58:35.185Z,11.50
2019-05-23T01:01:05.316Z,11.40
2019-05-23T01:03:35.992Z,11.30
2019-05-23T01:06:06.847Z,11.30
2019-05-23T01:08:37.341Z,11.30
2019-05-23T01:11:07.016Z,11.20
2019-05-23T01:13:38.050Z,11.20
2019-05-23T01:16:09.197Z,11.20
2019-05-23T01:18:39.305Z,11.20
2019-05-23T01:21:19.963Z,11.20
2019-05-23T01:23:51.330Z,11.20
2019-05-23T01:26:22.677Z,11.20
2019-05-23T01:28:52.310Z,11.20
2019-05-23T01:31:23.916Z,11.20
2019-05-23T01:33:56.599Z,11.10
2019-05-23T01:36:26.084Z,11.10
2019-05-23T01:38:55.926Z,11.00
2019-05-23T01:41:26.806Z,11.00
2019-05-23T01:43:56.214Z,10.90
2019-05-23T01:46:26.497Z,10.80
2019-05-23T01:48:56.097Z,10.80
2019-05-23T01:51:26.189Z,10.80
2019-05-23T01:53:56.654Z,10.90
2019-05-23T01:56:27.243Z,10.80
2019-05-23T01:58:57.114Z,10.80
2019-05-23T02:01:27.313Z,10.80
2019-05-23T02:03:56.756Z,10.70
2019-05-23T02:06:26.535Z,10.70
2019-05-23T02:08:56.853Z,10.80
2019-05-23T02:11:27.601Z,10.70
2019-05-23T02:13:57.165Z,10.70
2019-05-23T02:16:26.854Z,10.60
2019-05-23T02:18:56.525Z,10.60
2019-05-23T02:21:28.510Z,10.60
2019-05-23T02:23:58.433Z,10.50
2019-05-23T02:26:28.953Z,10.60
2019-05-23T02:28:59.896Z,10.60
2019-05-23T02:31:29.208Z,10.60
2019-05-23T02:33:59.273Z,10.50
2019-05-23T02:36:30.756Z,10.50
2019-05-23T02:39:01.715Z,10.50
2019-05-23T02:41:33.867Z,10.50
2019-05-23T02:44:05.812Z,10.50
2019-05-23T02:46:54.063Z,10.40
2019-05-23T02:49:28.272Z,10.40
2019-05-23T02:52:01.577Z,10.30
2019-05-23T02:54:37.470Z,10.30
2019-05-23T02:57:08.137Z,10.30
2019-05-23T02:59:49.667Z,10.30
2019-05-23T03:02:55.116Z,10.20
2019-05-23T03:05:26.106Z,10.20
2019-05-23T03:07:58.893Z,10.20
2019-05-23T03:10:32.834Z,10.20
2019-05-23T03:13:05.271Z,10.10
2019-05-23T03:15:37.187Z,10.10
2019-05-23T03:18:14.000Z,10.10
2019-05-23T03:20:43.926Z,10.10
2019-05-23T03:23:18.833Z,10.10
2019-05-23T03:26:03.211Z,10.10
2019-05-23T03:28:39.322Z,10.10
2019-05-23T03:31:33.418Z,10.00
2019-05-23T03:33:49.624Z,9.90
2019-05-23T03:36:20.422Z,9.90
2019-05-23T03:38:51.367Z,9.90
2019-05-23T03:41:21.793Z,9.90
2019-05-23T03:43:52.359Z,9.90
2019-05-23T03:46:23.325Z,9.90
2019-05-23T03:48:56.389Z,9.80
2019-05-23T03:51:26.646Z,9.70
2019-05-23T03:53:57.313Z,9.70
2019-05-23T03:56:27.684Z,9.70
2019-05-23T03:58:58.531Z,9.70
2019-05-23T04:01:46.258Z,9.70
2019-05-23T04:04:03.352Z,9.70
2019-05-23T04:06:34.105Z,9.70
2019-05-23T04:09:06.476Z,9.70
2019-05-23T04:11:37.013Z,9.70
2019-05-23T04:14:08.507Z,9.70
2019-05-23T04:16:38.089Z,9.80
2019-05-23T04:19:07.458Z,9.80
2019-05-23T04:21:37.115Z,9.90
2019-05-23T04:24:06.812Z,9.90
2019-05-23T04:26:36.507Z,9.80
2019-05-23T04:29:06.154Z,9.90
2019-05-23T04:31:35.521Z,9.90
2019-05-23T04:34:04.876Z,9.80
2019-05-23T04:36:34.193Z,9.90
2019-05-23T04:39:05.425Z,9.80
2019-05-23T04:41:34.850Z,9.70
2019-05-23T04:44:05.570Z,9.70
2019-05-23T04:46:36.443Z,9.70
2019-05-23T04:49:08.043Z,9.80
2019-05-23T04:51:37.499Z,9.80
2019-05-23T04:54:07.761Z,9.90
2019-05-23T04:56:37.422Z,9.90
2019-05-23T04:59:07.388Z,10.00
2019-05-23T05:01:39.078Z,10.10
2019-05-23T05:04:09.394Z,10.20
2019-05-23T05:06:39.441Z,10.20
2019-05-23T05:09:11.484Z,10.20
2019-05-23T05:11:41.469Z,10.30
2019-05-23T05:14:10.773Z,10.40
2019-05-23T05:16:40.655Z,10.50
2019-05-23T05:19:10.325Z,10.60
2019-05-23T05:21:40.513Z,10.60
2019-05-23T05:24:10.086Z,10.60
2019-05-23T05:26:40.276Z,10.60
2019-05-23T05:29:10.518Z,10.70
2019-05-23T05:31:39.867Z,10.90
2019-05-23T05:34:12.397Z,11.10
2019-05-23T05:36:42.177Z,11.10
2019-05-23T05:39:13.221Z,11.20
2019-05-23T05:41:43.558Z,11.30
2019-05-23T05:44:13.749Z,11.30
2019-05-23T05:46:43.474Z,11.40
2019-05-23T05:49:15.469Z,11.50
2019-05-23T05:51:44.684Z,11.60
2019-05-23T05:54:13.999Z,11.60
2019-05-23T05:56:43.685Z,11.70
2019-05-23T05:59:13.225Z,11.80
2019-05-23T06:01:43.675Z,11.90
2019-05-23T06:04:13.066Z,12.10
2019-05-23T06:06:44.611Z,12.10
2019-05-23T06:09:16.038Z,12.20
2019-05-23T06:11:45.799Z,12.30
2019-05-23T06:14:15.395Z,12.40
2019-05-23T06:16:45.701Z,12.50
2019-05-23T06:19:15.377Z,12.70
2019-05-23T06:21:46.720Z,12.80
2019-05-23T06:24:16.601Z,12.90
2019-05-23T06:26:46.053Z,12.90
2019-05-23T06:29:15.818Z,13.00
2019-05-23T06:31:45.497Z,13.10
2019-05-23T06:34:15.074Z,13.20
2019-05-23T06:36:44.684Z,13.30
2019-05-23T06:39:14.856Z,13.40
2019-05-23T06:41:46.124Z,13.50
2019-05-23T06:44:17.591Z,13.50
2019-05-23T06:46:47.957Z,13.60
2019-05-23T06:49:17.724Z,13.70
2019-05-23T06:51:47.038Z,13.80
2019-05-23T06:54:16.418Z,13.90
2019-05-23T06:56:46.296Z,14.00
2019-05-23T06:59:15.753Z,14.00
2019-05-23T07:01:45.207Z,14.10
2019-05-23T07:04:15.220Z,14.20
2019-05-23T07:06:45.431Z,14.20
2019-05-23T07:09:19.326Z,14.30
2019-05-23T07:11:49.389Z,14.40
2019-05-23T07:14:18.850Z,14.40
2019-05-23T07:16:50.365Z,14.50
2019-05-23T07:19:21.407Z,14.60
2019-05-23T07:21:50.723Z,14.70
2019-05-23T07:24:20.715Z,14.80
2019-05-23T07:26:50.095Z,14.80
2019-05-23T07:29:19.950Z,14.90
2019-05-23T07:31:49.924Z,15.00
2019-05-23T07:34:20.634Z,15.10
2019-05-23T07:36:50.345Z,15.20
2019-05-23T07:39:21.175Z,15.20
2019-05-23T07:41:51.402Z,15.30
2019-05-23T07:44:21.582Z,15.30
2019-05-23T07:46:51.147Z,15.40
2019-05-23T07:49:20.484Z,15.60
2019-05-23T07:51:49.904Z,15.70
2019-05-23T07:54:20.848Z,15.70
2019-05-23T07:56:50.490Z,15.80
2019-05-23T07:59:20.184Z,15.90
2019-05-23T08:01:53.250Z,16.00
2019-05-23T08:04:23.016Z,16.10
2019-05-23T08:06:52.670Z,16.10
2019-05-23T08:09:22.811Z,16.20
2019-05-23T08:11:52.511Z,16.20
2019-05-23T08:14:21.823Z,16.10
2019-05-23T08:16:53.653Z,16.20
2019-05-23T08:19:23.431Z,16.30
2019-05-23T08:21:53.175Z,16.60
2019-05-23T08:24:22.898Z,16.60
2019-05-23T08:26:53.514Z,16.70
2019-05-23T08:29:25.839Z,16.80
2019-05-23T08:31:54.186Z,16.90
2019-05-23T08:34:40.023Z,16.90
2019-05-23T08:36:54.856Z,17.00
2019-05-23T08:39:25.232Z,17.00
2019-05-23T08:41:55.390Z,17.00
2019-05-23T08:44:25.110Z,17.10
2019-05-23T08:46:54.504Z,17.10
2019-05-23T08:49:24.552Z,17.20
2019-05-23T08:51:55.074Z,17.20
2019-05-23T08:54:24.384Z,17.30
2019-05-23T08:56:53.759Z,17.40
2019-05-23T08:59:23.630Z,17.50
2019-05-23T09:01:54.694Z,17.60
2019-05-23T09:04:24.374Z,17.70
2019-05-23T09:06:54.261Z,17.70
2019-05-23T09:09:29.732Z,17.80
2019-05-23T09:11:56.283Z,17.70
2019-05-23T09:14:25.702Z,18.00
2019-05-23T09:16:55.731Z,18.10
2019-05-23T09:19:25.721Z,18.10
2019-05-23T09:21:57.939Z,18.20
2019-05-23T09:24:27.046Z,18.30
2019-05-23T09:26:56.435Z,18.40
2019-05-23T09:29:26.233Z,18.40
2019-05-23T09:31:55.541Z,18.50
2019-05-23T09:34:25.731Z,18.40
2019-05-23T09:36:55.032Z,18.50
2019-05-23T09:39:25.341Z,18.50
2019-05-23T09:41:54.900Z,18.60
2019-05-23T09:44:24.296Z,18.60
2019-05-23T09:46:53.588Z,18.80
2019-05-23T09:49:22.969Z,18.80
2019-05-23T09:51:56.122Z,18.80
2019-05-23T09:54:23.625Z,18.80
2019-05-23T09:56:53.537Z,19.00
2019-05-23T09:59:22.861Z,19.10
2019-05-23T10:01:52.347Z,19.20
2019-05-23T10:04:21.940Z,19.40
2019-05-23T10:06:51.251Z,19.50
2019-05-23T10:09:20.941Z,19.50
2019-05-23T10:11:50.663Z,19.50
2019-05-23T10:14:24.699Z,19.30
2019-05-23T10:16:56.906Z,19.30
2019-05-23T10:19:26.855Z,19.60
2019-05-23T10:21:56.162Z,19.70
2019-05-23T10:24:25.757Z,19.80
2019-05-23T10:26:55.053Z,19.80
2019-05-23T10:29:24.364Z,19.70
2019-05-23T10:31:54.137Z,19.80
2019-05-23T10:34:23.539Z,19.80
2019-05-23T10:36:52.893Z,20.00
2019-05-23T10:39:22.707Z,20.20
2019-05-23T10:41:52.017Z,20.40
2019-05-23T10:44:21.406Z,20.30
2019-05-23T10:46:50.705Z,20.20
2019-05-23T10:49:20.825Z,20.30
2019-05-23T10:51:50.510Z,20.40
2019-05-23T10:54:19.907Z,20.60
2019-05-23T10:56:49.195Z,20.60
2019-05-23T10:59:18.829Z,20.40
2019-05-23T11:01:49.134Z,20.40
2019-05-23T11:04:18.718Z,20.60
2019-05-23T11:06:49.189Z,20.70
2019-05-23T11:09:36.227Z,20.50
2019-05-23T11:11:50.861Z,20.50
2019-05-23T11:14:20.177Z,20.80
2019-05-23T11:16:49.767Z,21.10
2019-05-23T11:19:19.702Z,21.10
2019-05-23T11:21:49.414Z,21.30
2019-05-23T11:24:18.736Z,21.30
2019-05-23T11:26:48.035Z,21.10
2019-05-23T11:29:17.418Z,21.10
2019-05-23T11:31:47.101Z,20.90
2019-05-23T11:34:16.581Z,21.00
2019-05-23T11:36:45.883Z,20.90
2019-05-23T11:39:16.600Z,20.80
2019-05-23T11:41:46.450Z,20.80
2019-05-23T11:44:16.058Z,20.80
2019-05-23T11:46:46.603Z,21.00
2019-05-23T11:49:16.177Z,21.20
2019-05-23T11:51:46.170Z,21.20
2019-05-23T11:54:15.834Z,21.10
2019-05-23T11:56:45.691Z,21.20
2019-05-23T11:59:14.986Z,21.40
2019-05-23T12:01:51.622Z,21.40
2019-05-23T12:04:22.200Z,21.30
2019-05-23T12:06:55.873Z,21.40
2019-05-23T12:09:24.725Z,21.40
2019-05-23T12:11:54.103Z,21.40
2019-05-23T12:14:23.414Z,21.50
2019-05-23T12:16:55.139Z,21.80
2019-05-23T12:19:24.947Z,21.90
2019-05-23T12:21:57.871Z,21.80
2019-05-23T12:24:27.242Z,21.70
2019-05-23T12:26:56.903Z,21.80
2019-05-23T12:29:26.833Z,22.10
2019-05-23T12:31:57.104Z,21.80
2019-05-23T12:34:26.525Z,22.20
2019-05-23T12:37:16.789Z,22.20
2019-05-23T12:39:27.321Z,21.90
2019-05-23T12:41:56.659Z,21.90
2019-05-23T12:44:26.054Z,22.00
2019-05-23T12:46:55.409Z,22.00
2019-05-23T12:49:26.344Z,22.00
2019-05-23T12:51:57.270Z,22.20
2019-05-23T12:54:26.633Z,22.30
2019-05-23T12:56:56.385Z,22.40
2019-05-23T12:59:26.637Z,22.40
2019-05-23T13:01:57.604Z,22.30
2019-05-23T13:04:27.037Z,22.20
2019-05-23T13:06:56.349Z,22.10
2019-05-23T13:09:25.672Z,22.30
2019-05-23T13:11:57.020Z,22.70
2019-05-23T13:14:26.484Z,22.90
2019-05-23T13:17:00.344Z,23.00
2019-05-23T13:19:27.546Z,23.50
2019-05-23T13:21:57.222Z,23.80
2019-05-23T13:24:27.386Z,23.60
2019-05-23T13:26:57.333Z,23.30
2019-05-23T13:29:26.768Z,23.50
2019-05-23T13:31:56.080Z,24.20
2019-05-23T13:34:25.716Z,24.40
2019-05-23T13:36:55.545Z,23.70
2019-05-23T13:39:25.405Z,22.80
2019-05-23T13:41:55.035Z,22.70
2019-05-23T13:44:33.807Z,22.80
2019-05-23T13:46:55.745Z,23.10
2019-05-23T13:49:25.653Z,23.40
2019-05-23T13:51:55.243Z,23.10
2019-05-23T13:54:24.837Z,23.50
2019-05-23T13:56:55.099Z,24.00
2019-05-23T13:59:24.482Z,24.10
2019-05-23T14:01:54.648Z,24.50
2019-05-23T14:04:24.481Z,24.90
2019-05-23T14:06:53.863Z,24.90
2019-05-23T14:09:25.290Z,24.90
2019-05-23T14:12:19.951Z,25.30
2019-05-23T14:14:26.015Z,24.60
2019-05-23T14:16:57.318Z,24.60
2019-05-23T14:19:29.335Z,24.80
2019-05-23T14:21:58.070Z,23.80
2019-05-23T14:24:27.779Z,23.40
2019-05-23T14:27:14.946Z,23.40
2019-05-23T14:29:44.498Z,23.40
2019-05-23T14:32:21.196Z,23.40
2019-05-23T14:34:52.282Z,24.20
2019-05-23T14:37:24.217Z,24.80
2019-05-23T14:39:54.970Z,25.00
2019-05-23T14:42:28.576Z,24.80
2019-05-23T14:45:00.791Z,24.80
2019-05-23T14:47:47.678Z,24.70
2019-05-23T14:50:27.978Z,24.70
2019-05-23T14:52:59.239Z,24.50
2019-05-23T14:55:29.218Z,24.80
2019-05-23T14:57:59.368Z,25.00
2019-05-23T15:00:29.931Z,25.50
2019-05-23T15:02:59.311Z,26.10
2019-05-23T15:05:29.705Z,26.20
2019-05-23T15:07:59.153Z,25.40
2019-05-23T15:10:29.050Z,25.30
2019-05-23T15:12:58.837Z,25.40
2019-05-23T15:15:28.346Z,25.20
2019-05-23T15:17:57.667Z,25.40
2019-05-23T15:23:15.384Z,25.00
2019-05-23T15:25:44.681Z,25.10
2019-05-23T15:28:14.383Z,25.30
2019-05-23T15:30:43.890Z,25.30
2019-05-23T15:33:13.266Z,25.30
2019-05-23T15:35:43.179Z,25.80
2019-05-23T15:38:12.509Z,26.30
2019-05-23T15:40:41.774Z,25.60
2019-05-23T15:43:11.067Z,24.90
2019-05-23T15:45:40.459Z,24.90
2019-05-23T15:48:10.082Z,25.00
2019-05-23T15:50:53.094Z,24.80
2019-05-23T15:53:33.277Z,25.00
2019-05-23T15:56:25.854Z,25.00
2019-05-23T15:58:51.759Z,25.20
2019-05-23T16:01:25.980Z,25.30
2019-05-23T16:04:06.125Z,25.40
2019-05-23T16:06:36.495Z,25.50
2019-05-23T16:09:27.724Z,25.10
2019-05-23T16:11:43.368Z,25.50
2019-05-23T16:14:12.806Z,25.20
2019-05-23T16:16:42.767Z,25.20
2019-05-23T16:19:13.480Z,25.30
2019-05-23T16:21:43.128Z,25.50
2019-05-23T16:24:12.986Z,24.70
2019-05-23T16:26:42.622Z,24.70
2019-05-23T16:29:14.080Z,24.80
2019-05-23T16:31:43.653Z,24.60
2019-05-23T16:34:12.940Z,24.60
2019-05-23T16:36:42.313Z,24.60
2019-05-23T16:39:11.629Z,24.50
2019-05-23T16:41:41.194Z,24.20
2019-05-23T16:44:10.764Z,24.10
2019-05-23T16:46:40.448Z,23.90
2019-05-23T16:49:09.750Z,24.10
2019-05-23T16:51:39.115Z,24.60
2019-05-23T16:54:08.860Z,24.50
2019-05-23T16:56:39.803Z,24.80
2019-05-23T16:59:16.919Z,25.10
2019-05-23T17:02:00.460Z,25.00
2019-05-23T17:04:29.395Z,24.80
2019-05-23T17:07:00.418Z,24.50
2019-05-23T17:09:40.326Z,24.40
2019-05-23T17:12:17.063Z,24.20
2019-05-23T17:15:06.386Z,24.10
2019-05-23T17:18:00.706Z,24.20
2019-05-23T17:20:22.048Z,24.20
2019-05-23T17:22:55.804Z,24.60
2019-05-23T17:25:26.877Z,24.70
2019-05-23T17:27:57.876Z,25.20
2019-05-23T17:30:37.773Z,25.30
2019-05-23T17:33:08.488Z,24.80
2019-05-23T17:35:39.079Z,24.70
2019-05-23T17:38:08.458Z,24.10
2019-05-23T17:40:37.821Z,24.00
2019-05-23T17:43:07.941Z,24.10
2019-05-23T17:45:37.741Z,24.20
2019-05-23T17:48:08.628Z,24.10
2019-05-23T17:50:38.024Z,24.00
2019-05-23T17:53:07.472Z,24.00
2019-05-23T17:55:36.768Z,24.30
2019-05-23T17:58:06.502Z,24.50
2019-05-23T18:00:43.517Z,24.50
2019-05-23T18:03:13.657Z,24.20
2019-05-23T18:05:42.967Z,24.20
2019-05-23T18:08:13.104Z,24.10
2019-05-23T18:10:45.702Z,24.20
2019-05-23T18:13:15.162Z,24.00
2019-05-23T18:15:45.914Z,23.70
2019-05-23T18:18:16.374Z,23.50
2019-05-23T18:20:46.465Z,23.30
2019-05-23T18:23:16.629Z,23.30
2019-05-23T18:25:46.505Z,22.90
2019-05-23T18:28:15.878Z,22.80
2019-05-23T18:30:47.140Z,22.60
2019-05-23T18:33:18.166Z,22.50
2019-05-23T18:35:49.203Z,22.50
2019-05-23T18:38:18.879Z,22.70
2019-05-23T18:41:01.529Z,22.50
2019-05-23T18:43:19.606Z,22.20
2019-05-23T18:45:50.611Z,22.00
2019-05-23T18:48:20.324Z,21.70
2019-05-23T18:50:50.253Z,21.40
2019-05-23T18:53:19.881Z,21.20
2019-05-23T18:55:49.865Z,21.30
2019-05-23T18:58:20.433Z,21.40
2019-05-23T19:01:03.044Z,21.20
2019-05-23T19:03:33.012Z,21.10
2019-05-23T19:06:02.727Z,21.10
2019-05-23T19:08:32.608Z,21.10
2019-05-23T19:11:19.013Z,21.10
2019-05-23T19:13:33.012Z,21.10
2019-05-23T19:16:02.334Z,20.90
2019-05-23T19:18:32.542Z,20.80
2019-05-23T19:21:02.547Z,20.60
2019-05-23T19:23:32.388Z,20.50
2019-05-23T19:26:01.982Z,20.50
2019-05-23T19:28:31.891Z,20.50
2019-05-23T19:31:01.220Z,20.40
2019-05-23T19:33:30.588Z,20.30
2019-05-23T19:36:00.074Z,20.30
2019-05-23T19:38:29.416Z,20.20
2019-05-23T19:40:58.997Z,20.00
2019-05-23T19:43:28.370Z,19.90
2019-05-23T19:45:57.678Z,19.70
2019-05-23T19:48:27.620Z,19.70
2019-05-23T19:50:56.933Z,19.60
2019-05-23T19:53:27.068Z,19.50
2019-05-23T19:55:56.727Z,19.40
2019-05-23T19:58:26.643Z,19.30
2019-05-23T20:00:57.200Z,19.20
2019-05-23T20:03:26.563Z,19.20
2019-05-23T20:05:57.513Z,19.00
2019-05-23T20:08:27.113Z,18.90
2019-05-23T20:10:57.072Z,18.70
2019-05-23T20:13:26.993Z,18.50
2019-05-23T20:15:56.621Z,18.50
2019-05-23T20:18:26.191Z,18.40
2019-05-23T20:20:55.513Z,18.30
2019-05-23T20:23:24.818Z,18.40
2019-05-23T20:25:54.147Z,18.30
2019-05-23T20:28:24.668Z,18.20
2019-05-23T20:30:54.486Z,18.20
2019-05-23T20:33:24.192Z,18.10
2019-05-23T20:35:53.500Z,18.00
2019-05-23T20:38:24.537Z,17.90
2019-05-23T20:40:54.284Z,17.80
2019-05-23T20:43:24.391Z,17.90
2019-05-23T20:45:55.079Z,17.90
2019-05-23T20:48:25.169Z,17.80
2019-05-23T20:50:55.095Z,17.70
2019-05-23T20:53:24.484Z,17.60
2019-05-23T20:55:53.810Z,17.50
2019-05-23T20:58:23.483Z,17.40
2019-05-23T21:00:56.854Z,17.30
2019-05-23T21:03:27.414Z,17.20
2019-05-23T21:05:56.745Z,17.30
2019-05-23T21:08:26.523Z,17.20
2019-05-23T21:10:56.063Z,17.20
2019-05-23T21:13:25.432Z,17.20
2019-05-23T21:15:54.772Z,17.20
2019-05-23T21:18:24.154Z,17.20
2019-05-23T21:20:53.461Z,17.10
2019-05-23T21:23:22.785Z,16.90
2019-05-23T21:25:56.634Z,16.70
2019-05-23T21:28:25.963Z,16.70
2019-05-23T21:30:55.408Z,16.70
2019-05-23T21:33:25.120Z,16.70
2019-05-23T21:35:54.842Z,16.60
2019-05-23T21:38:24.709Z,16.50
2019-05-23T21:40:54.094Z,16.40
2019-05-23T21:43:23.832Z,16.40
2019-05-23T21:45:53.508Z,16.40
2019-05-23T21:48:23.013Z,16.50
2019-05-23T21:50:52.377Z,16.50
2019-05-23T21:53:21.674Z,16.50
2019-05-23T21:55:51.066Z,16.40
2019-05-23T21:58:20.447Z,16.40
2019-05-23T22:01:07.620Z,16.40
2019-05-23T22:04:00.975Z,16.30
2019-05-23T22:06:40.788Z,16.20
2019-05-23T22:09:13.304Z,16.20
2019-05-23T22:11:42.962Z,16.50
2019-05-23T22:14:12.347Z,16.50
2019-05-23T22:16:41.900Z,16.40
2019-05-23T22:19:13.270Z,16.30
2019-05-23T22:21:42.608Z,16.20
2019-05-23T22:24:13.296Z,16.10
2019-05-23T22:26:42.751Z,16.20
2019-05-23T22:29:12.126Z,16.10
2019-05-23T22:31:41.445Z,16.10
2019-05-23T22:34:28.550Z,16.10
2019-05-23T22:36:59.039Z,16.10
2019-05-23T22:39:28.652Z,16.10
2019-05-23T22:41:58.259Z,16.10
2019-05-23T22:44:28.174Z,16.20
2019-05-23T22:46:57.959Z,16.20
2019-05-23T22:49:27.620Z,16.30
2019-05-23T22:51:57.198Z,16.20
2019-05-23T22:54:26.562Z,16.20
2019-05-23T22:56:55.871Z,16.10
2019-05-23T22:59:25.243Z,16.10
2019-05-23T23:02:10.952Z,16.00
2019-05-23T23:04:40.256Z,15.90
2019-05-23T23:07:09.650Z,15.80
2019-05-23T23:09:40.989Z,15.60
2019-05-23T23:12:10.559Z,15.50
2019-05-23T23:14:39.911Z,15.60
2019-05-23T23:17:09.358Z,15.60
2019-05-23T23:19:39.056Z,15.50
2019-05-23T23:22:12.047Z,15.40
2019-05-23T23:24:44.571Z,15.20
2019-05-23T23:27:15.532Z,15.10
2019-05-23T23:29:45.249Z,15.10
2019-05-23T23:32:14.875Z,15.00
2019-05-23T23:34:44.331Z,14.90
2019-05-23T23:37:13.637Z,14.70
2019-05-23T23:39:43.026Z,14.70
2019-05-23T23:42:12.658Z,14.60
2019-05-23T23:44:41.527Z,14.60
2019-05-23T23:47:28.596Z,14.60
2019-05-23T23:50:15.825Z,14.50
2019-05-23T23:53:02.921Z,14.50
2019-05-23T23:55:49.755Z,14.50
2019-05-23T23:58:18.386Z,14.40
